createdAt,value
2023-05-23T00:01:39.908Z,56.21
2023-05-23T00:04:06.944Z,56.06
2023-05-23T00:06:34.305Z,56.09
2023-05-23T00:09:01.360Z,56.21
2023-05-23T00:11:29.159Z,56.19
2023-05-23T00:14:01.039Z,55.96
2023-05-23T00:16:28.005Z,55.93
2023-05-23T00:18:57.532Z,56.12
2023-05-23T00:21:24.564Z,55.97
2023-05-23T00:23:51.450Z,56.09
2023-05-23T00:26:18.324Z,56.23
2023-05-23T00:28:45.217Z,56.51
2023-05-23T00:31:12.178Z,56.44
2023-05-23T00:33:39.017Z,56.65
2023-05-23T00:36:06.097Z,56.72
2023-05-23T00:38:33.017Z,56.58
2023-05-23T00:41:00.146Z,57.02
2023-05-23T00:43:27.526Z,57.00
2023-05-23T00:45:54.352Z,57.31
2023-05-23T00:48:21.585Z,57.04
2023-05-23T00:50:48.536Z,57.30
2023-05-23T00:53:16.926Z,57.63
2023-05-23T00:55:45.009Z,57.69
2023-05-23T00:58:13.128Z,58.18
2023-05-23T01:00:40.190Z,58.08
2023-05-23T01:03:07.121Z,58.25
2023-05-23T01:05:34.032Z,58.11
2023-05-23T01:08:03.306Z,58.16
2023-05-23T01:10:31.485Z,58.27
2023-05-23T01:13:20.922Z,58.07
2023-05-23T01:16:02.961Z,58.30
2023-05-23T01:18:38.377Z,58.41
2023-05-23T01:21:17.028Z,58.78
2023-05-23T01:24:12.818Z,58.53
2023-05-23T01:27:11.755Z,58.40
2023-05-23T01:29:45.704Z,58.83
2023-05-23T01:32:14.389Z,58.82
2023-05-23T01:34:43.703Z,58.82
2023-05-23T01:37:14.463Z,59.05
2023-05-23T01:39:42.164Z,58.96
2023-05-23T01:42:09.540Z,59.32
2023-05-23T01:44:37.331Z,59.35
2023-05-23T01:47:06.094Z,59.22
2023-05-23T01:49:34.463Z,59.20
2023-05-23T01:52:02.500Z,59.48
2023-05-23T01:54:30.532Z,59.21
2023-05-23T01:56:58.199Z,59.28
2023-05-23T01:59:25.411Z,59.49
2023-05-23T02:01:52.843Z,59.41
2023-05-23T02:04:19.703Z,59.25
2023-05-23T02:06:47.336Z,59.16
2023-05-23T02:09:14.555Z,58.82
2023-05-23T02:11:41.399Z,58.71
2023-05-23T02:14:09.393Z,58.53
2023-05-23T02:16:36.655Z,58.29
2023-05-23T02:19:04.169Z,58.48
2023-05-23T02:21:34.283Z,58.31
2023-05-23T02:24:02.014Z,58.14
2023-05-23T02:26:28.932Z,58.27
2023-05-23T02:28:55.778Z,58.29
2023-05-23T02:31:23.491Z,58.24
2023-05-23T02:33:50.432Z,58.54
2023-05-23T02:36:17.269Z,58.66
2023-05-23T02:38:44.084Z,58.80
2023-05-23T02:41:11.009Z,58.57
2023-05-23T02:43:39.231Z,58.58
2023-05-23T02:46:06.068Z,58.58
2023-05-23T02:48:32.890Z,58.87
2023-05-23T02:50:59.921Z,58.41
2023-05-23T02:53:26.931Z,58.68
2023-05-23T02:55:53.751Z,58.49
2023-05-23T02:58:20.738Z,58.52
2023-05-23T03:00:47.657Z,58.12
2023-05-23T03:03:14.724Z,58.33
2023-05-23T03:05:42.158Z,58.40
2023-05-23T03:08:09.312Z,58.38
2023-05-23T03:10:36.357Z,58.19
2023-05-23T03:13:03.428Z,57.94
2023-05-23T03:15:30.429Z,58.62
2023-05-23T03:17:57.429Z,58.33
2023-05-23T03:20:24.468Z,58.24
2023-05-23T03:22:51.448Z,58.49
2023-05-23T03:25:18.391Z,58.23
2023-05-23T03:27:45.694Z,58.64
2023-05-23T03:30:13.419Z,58.55
2023-05-23T03:32:40.459Z,58.36
2023-05-23T03:35:08.202Z,58.16
2023-05-23T03:37:35.346Z,58.25
2023-05-23T03:40:02.506Z,58.35
2023-05-23T03:42:30.045Z,58.13
2023-05-23T03:44:57.769Z,58.04
2023-05-23T03:47:24.774Z,58.20
2023-05-23T03:49:51.835Z,58.23
2023-05-23T03:52:18.885Z,58.45
2023-05-23T03:54:46.206Z,58.36
2023-05-23T03:57:13.147Z,58.35
2023-05-23T03:59:40.183Z,58.71
2023-05-23T04:02:07.384Z,58.27
2023-05-23T04:04:34.508Z,58.19
2023-05-23T04:07:01.739Z,58.33
2023-05-23T04:09:29.118Z,58.21
2023-05-23T04:11:56.141Z,58.49
2023-05-23T04:14:24.280Z,58.33
2023-05-23T04:16:51.431Z,58.29
2023-05-23T04:19:18.560Z,58.70
2023-05-23T04:21:45.508Z,58.37
2023-05-23T04:24:12.392Z,58.53
2023-05-23T04:26:39.428Z,58.66
2023-05-23T04:29:06.530Z,58.75
2023-05-23T04:31:34.282Z,58.83
2023-05-23T04:34:02.441Z,58.72
2023-05-23T04:36:30.204Z,58.58
2023-05-23T04:38:57.052Z,58.62
2023-05-23T04:41:24.104Z,58.58
2023-05-23T04:43:54.266Z,58.76
2023-05-23T04:46:27.565Z,58.80
2023-05-23T04:48:55.147Z,58.61
2023-05-23T04:51:22.285Z,58.74
2023-05-23T04:53:50.977Z,58.61
2023-05-23T04:56:19.392Z,58.48
2023-05-23T04:58:48.111Z,58.65
2023-05-23T05:01:15.670Z,58.79
2023-05-23T05:03:42.796Z,58.60
2023-05-23T05:06:09.694Z,58.62
2023-05-23T05:08:36.829Z,58.75
2023-05-23T05:11:03.686Z,58.51
2023-05-23T05:13:30.510Z,58.64
2023-05-23T05:15:57.359Z,58.77
2023-05-23T05:18:24.437Z,58.81
2023-05-23T05:20:51.243Z,58.67
2023-05-23T05:23:18.165Z,58.78
2023-05-23T05:25:45.946Z,58.71
2023-05-23T05:28:12.883Z,58.49
2023-05-23T05:30:40.118Z,58.68
2023-05-23T05:33:07.777Z,58.65
2023-05-23T05:35:40.486Z,58.62
2023-05-23T05:38:08.431Z,58.97
2023-05-23T05:40:35.405Z,59.01
2023-05-23T05:43:02.374Z,58.77
2023-05-23T05:45:29.214Z,59.07
2023-05-23T05:47:56.075Z,58.97
2023-05-23T05:50:22.961Z,59.11
2023-05-23T05:52:49.837Z,59.06
2023-05-23T05:55:16.896Z,59.21
2023-05-23T05:57:43.771Z,59.16
2023-05-23T06:00:15.125Z,59.24
2023-05-23T06:02:51.500Z,59.62
2023-05-23T06:05:18.537Z,59.56
2023-05-23T06:07:45.470Z,59.38
2023-05-23T06:10:13.720Z,59.77
2023-05-23T06:12:40.900Z,59.64
2023-05-23T06:15:09.601Z,59.61
2023-05-23T06:17:36.496Z,59.56
2023-05-23T06:20:04.945Z,59.58
2023-05-23T06:22:31.970Z,59.85
2023-05-23T06:24:58.893Z,59.97
2023-05-23T06:27:25.750Z,60.04
2023-05-23T06:29:52.721Z,59.99
2023-05-23T06:32:20.729Z,60.29
2023-05-23T06:34:47.547Z,60.11
2023-05-23T06:37:14.427Z,60.17
2023-05-23T06:39:41.259Z,60.50
2023-05-23T06:42:08.228Z,60.42
2023-05-23T06:44:35.080Z,60.26
2023-05-23T06:47:01.895Z,60.52
2023-05-23T06:49:29.088Z,60.74
2023-05-23T06:51:55.918Z,60.76
2023-05-23T06:54:22.780Z,60.74
2023-05-23T06:56:49.592Z,60.75
2023-05-23T06:59:16.478Z,60.67
2023-05-23T07:01:43.323Z,60.96
2023-05-23T07:04:12.007Z,61.13
2023-05-23T07:06:39.908Z,61.40
2023-05-23T07:09:06.869Z,61.54
2023-05-23T07:11:33.694Z,61.45
2023-05-23T07:14:00.872Z,61.65
2023-05-23T07:16:27.822Z,61.64
2023-05-23T07:18:54.705Z,61.82
2023-05-23T07:21:21.501Z,61.97
2023-05-23T07:23:48.323Z,62.11
2023-05-23T07:26:15.210Z,62.06
2023-05-23T07:28:42.067Z,62.06
2023-05-23T07:31:10.233Z,62.19
2023-05-23T07:33:37.104Z,62.68
2023-05-23T07:36:03.984Z,62.66
2023-05-23T07:38:30.999Z,62.17
2023-05-23T07:41:09.935Z,62.74
2023-05-23T07:43:38.091Z,62.94
2023-05-23T07:46:05.017Z,62.66
2023-05-23T07:48:32.229Z,62.63
2023-05-23T07:50:59.208Z,62.58
2023-05-23T07:53:26.383Z,62.73
2023-05-23T07:55:53.378Z,62.67
2023-05-23T07:58:20.185Z,62.84
2023-05-23T08:00:47.036Z,62.82
2023-05-23T08:03:13.959Z,62.99
2023-05-23T08:05:40.855Z,63.04
2023-05-23T08:08:07.782Z,62.86
2023-05-23T08:10:34.590Z,62.74
2023-05-23T08:13:06.624Z,62.83
2023-05-23T08:15:33.872Z,63.11
2023-05-23T08:18:00.868Z,63.22
2023-05-23T08:20:31.370Z,63.32
2023-05-23T08:23:02.629Z,63.61
2023-05-23T08:25:34.156Z,63.22
2023-05-23T08:28:01.709Z,63.01
2023-05-23T08:30:29.244Z,63.39
2023-05-23T08:32:57.021Z,63.59
2023-05-23T08:35:24.323Z,63.39
2023-05-23T08:37:52.608Z,63.38
2023-05-23T08:40:23.285Z,63.24
2023-05-23T08:42:51.320Z,63.46
2023-05-23T08:45:19.191Z,63.64
2023-05-23T08:47:47.332Z,63.64
2023-05-23T08:50:17.554Z,63.71
2023-05-23T08:52:56.960Z,63.73
2023-05-23T08:55:29.783Z,63.84
2023-05-23T08:58:01.557Z,64.08
2023-05-23T09:00:29.125Z,64.05
2023-05-23T09:02:57.238Z,64.26
2023-05-23T09:05:24.366Z,64.30
2023-05-23T09:07:51.761Z,64.22
2023-05-23T09:10:22.433Z,64.22
2023-05-23T09:12:49.855Z,64.36
2023-05-23T09:15:17.119Z,64.62
2023-05-23T09:17:45.134Z,64.44
2023-05-23T09:20:15.337Z,64.62
2023-05-23T09:22:49.139Z,64.51
2023-05-23T09:25:16.296Z,64.75
2023-05-23T09:27:45.762Z,64.72
2023-05-23T09:30:15.385Z,64.70
2023-05-23T09:32:42.592Z,64.86
2023-05-23T09:35:14.001Z,65.06
2023-05-23T09:37:45.911Z,64.88
2023-05-23T09:40:15.289Z,64.71
2023-05-23T09:42:44.925Z,64.70
2023-05-23T09:45:16.698Z,64.73
2023-05-23T09:47:53.786Z,64.79
2023-05-23T09:50:22.661Z,64.80
2023-05-23T09:52:51.054Z,64.72
2023-05-23T09:55:18.690Z,64.98
2023-05-23T09:57:50.581Z,64.95
2023-05-23T10:00:18.751Z,64.79
2023-05-23T10:03:14.688Z,64.71
2023-05-23T10:05:50.054Z,64.78
2023-05-23T10:08:39.407Z,65.01
2023-05-23T10:11:35.175Z,65.00
2023-05-23T10:14:07.057Z,64.94
2023-05-23T10:17:03.687Z,64.77
2023-05-23T10:19:54.783Z,64.54
2023-05-23T10:22:23.348Z,64.80
2023-05-23T10:24:51.073Z,64.70
2023-05-23T10:27:18.259Z,64.43
2023-05-23T10:29:45.280Z,64.12
2023-05-23T10:32:14.999Z,64.39
2023-05-23T10:35:06.282Z,64.50
2023-05-23T10:37:45.182Z,64.19
2023-05-23T10:40:26.636Z,64.44
2023-05-23T10:43:01.946Z,64.86
2023-05-23T10:45:29.081Z,64.72
2023-05-23T10:47:56.164Z,64.42
2023-05-23T10:50:37.272Z,64.17
2023-05-23T10:53:06.137Z,64.42
2023-05-23T10:55:37.150Z,64.14
2023-05-23T10:58:21.789Z,64.05
2023-05-23T11:01:02.270Z,64.52
2023-05-23T11:03:37.973Z,64.32
2023-05-23T11:06:05.969Z,64.28
2023-05-23T11:08:48.477Z,63.81
2023-05-23T11:11:15.928Z,64.00
2023-05-23T11:14:00.058Z,63.78
2023-05-23T11:16:42.178Z,63.73
2023-05-23T11:19:22.856Z,63.48
2023-05-23T11:21:56.151Z,63.76
2023-05-23T11:24:23.514Z,63.47
2023-05-23T11:27:01.100Z,63.20
2023-05-23T11:29:28.931Z,63.20
2023-05-23T11:31:57.330Z,63.59
2023-05-23T11:34:27.172Z,62.95
2023-05-23T11:36:56.166Z,62.85
2023-05-23T11:39:23.702Z,62.98
2023-05-23T11:42:03.748Z,62.52
2023-05-23T11:44:30.931Z,63.01
2023-05-23T11:47:15.837Z,62.82
2023-05-23T11:49:47.010Z,62.76
2023-05-23T11:52:14.729Z,62.56
2023-05-23T11:54:43.368Z,61.91
2023-05-23T11:57:11.360Z,61.96
2023-05-23T11:59:38.581Z,61.69
2023-05-23T12:02:07.982Z,61.70
2023-05-23T12:04:36.955Z,61.57
2023-05-23T12:07:06.454Z,61.39
2023-05-23T12:09:41.872Z,61.44
2023-05-23T12:12:08.733Z,60.75
2023-05-23T12:14:35.842Z,61.18
2023-05-23T12:17:02.760Z,60.78
2023-05-23T12:19:29.685Z,60.89
2023-05-23T12:21:56.580Z,60.23
2023-05-23T12:24:23.674Z,60.73
2023-05-23T12:27:00.197Z,60.17
2023-05-23T12:29:37.104Z,59.87
2023-05-23T12:32:06.949Z,59.97
2023-05-23T12:34:33.851Z,59.11
2023-05-23T12:37:17.954Z,58.85
2023-05-23T12:39:46.286Z,59.04
2023-05-23T12:42:13.186Z,58.71
2023-05-23T12:44:43.697Z,58.69
2023-05-23T12:47:10.755Z,58.58
2023-05-23T12:49:38.145Z,57.28
2023-05-23T12:52:05.084Z,56.41
2023-05-23T12:54:31.912Z,57.25
2023-05-23T12:56:58.721Z,56.83
2023-05-23T12:59:25.605Z,57.16
2023-05-23T13:01:52.513Z,56.66
2023-05-23T13:04:19.445Z,56.49
2023-05-23T13:06:46.711Z,56.51
2023-05-23T13:09:13.536Z,56.20
2023-05-23T13:11:41.614Z,55.83
2023-05-23T13:14:08.570Z,55.53
2023-05-23T13:16:36.293Z,54.89
2023-05-23T13:19:03.179Z,55.19
2023-05-23T13:21:30.176Z,54.82
2023-05-23T13:23:57.028Z,55.01
2023-05-23T13:26:23.861Z,54.67
2023-05-23T13:28:50.690Z,54.23
2023-05-23T13:31:17.631Z,52.99
2023-05-23T13:33:44.479Z,52.93
2023-05-23T13:36:11.341Z,53.13
2023-05-23T13:38:38.246Z,53.30
2023-05-23T13:41:05.133Z,53.34
2023-05-23T13:43:32.065Z,52.83
2023-05-23T13:45:59.155Z,52.28
2023-05-23T13:48:26.087Z,51.93
2023-05-23T13:50:53.107Z,51.49
2023-05-23T13:53:21.467Z,51.09
2023-05-23T13:55:48.417Z,51.13
2023-05-23T13:58:15.303Z,50.69
2023-05-23T14:00:43.157Z,51.09
2023-05-23T14:03:10.424Z,51.31
2023-05-23T14:05:37.435Z,51.29
2023-05-23T14:08:04.575Z,50.92
2023-05-23T14:10:33.281Z,50.30
2023-05-23T14:13:00.351Z,50.23
2023-05-23T14:15:28.020Z,49.79
2023-05-23T14:17:56.410Z,49.25
2023-05-23T14:20:23.654Z,49.19
2023-05-23T14:22:51.581Z,49.09
2023-05-23T14:25:18.864Z,48.12
2023-05-23T14:27:45.728Z,48.21
2023-05-23T14:30:13.063Z,48.21
2023-05-23T14:32:40.267Z,48.33
2023-05-23T14:35:10.587Z,48.17
2023-05-23T14:37:37.700Z,48.26
2023-05-23T14:40:10.159Z,47.79
2023-05-23T14:42:37.669Z,47.49
2023-05-23T14:45:05.034Z,48.17
2023-05-23T14:47:32.581Z,47.81
2023-05-23T14:49:59.784Z,47.97
2023-05-23T14:52:26.724Z,47.48
2023-05-23T14:54:53.527Z,46.86
2023-05-23T14:57:20.667Z,46.90
2023-05-23T14:59:47.744Z,46.91
2023-05-23T15:02:15.539Z,46.61
2023-05-23T15:04:42.641Z,46.85
2023-05-23T15:07:09.568Z,46.99
2023-05-23T15:09:36.484Z,47.06
2023-05-23T15:12:05.181Z,46.13
2023-05-23T15:14:32.176Z,46.45
2023-05-23T15:17:08.052Z,46.40
2023-05-23T15:19:36.774Z,46.58
2023-05-23T15:22:06.749Z,46.67
2023-05-23T15:24:34.970Z,46.29
2023-05-23T15:27:15.858Z,46.56
2023-05-23T15:29:46.785Z,46.61
2023-05-23T15:32:13.753Z,46.89
2023-05-23T15:34:40.754Z,46.30
2023-05-23T15:37:07.573Z,46.53
2023-05-23T15:39:34.438Z,46.75
2023-05-23T15:42:01.289Z,47.04
2023-05-23T15:44:28.158Z,46.30
2023-05-23T15:46:55.416Z,45.60
2023-05-23T15:49:26.462Z,46.34
2023-05-23T15:51:55.070Z,45.86
2023-05-23T15:54:22.170Z,45.61
2023-05-23T15:56:49.028Z,45.60
2023-05-23T15:59:16.300Z,45.69
2023-05-23T16:01:43.263Z,45.90
2023-05-23T16:04:10.192Z,45.69
2023-05-23T16:06:39.293Z,45.86
2023-05-23T16:09:06.339Z,45.55
2023-05-23T16:11:33.225Z,45.57
2023-05-23T16:14:00.085Z,45.74
2023-05-23T16:16:26.988Z,45.89
2023-05-23T16:18:54.007Z,45.98
2023-05-23T16:21:21.123Z,45.55
2023-05-23T16:23:51.316Z,45.90
2023-05-23T16:26:19.087Z,45.68
2023-05-23T16:28:45.903Z,45.98
2023-05-23T16:31:17.007Z,45.94
2023-05-23T16:33:44.841Z,45.60
2023-05-23T16:36:11.737Z,45.64
2023-05-23T16:38:38.800Z,45.46
2023-05-23T16:41:05.716Z,44.26
2023-05-23T16:43:33.424Z,43.86
2023-05-23T16:46:00.365Z,44.21
2023-05-23T16:48:27.338Z,44.15
2023-05-23T16:50:55.205Z,44.23
2023-05-23T16:53:22.239Z,44.26
2023-05-23T16:55:49.372Z,44.50
2023-05-23T16:58:18.645Z,44.66
2023-05-23T17:00:46.957Z,44.25
2023-05-23T17:03:13.843Z,43.91
2023-05-23T17:05:41.185Z,43.67
2023-05-23T17:08:08.322Z,43.76
2023-05-23T17:10:35.460Z,43.56
2023-05-23T17:13:02.246Z,43.83
2023-05-23T17:15:29.232Z,43.68
2023-05-23T17:17:56.144Z,43.68
2023-05-23T17:20:24.358Z,43.76
2023-05-23T17:22:51.883Z,43.72
2023-05-23T17:25:19.051Z,43.42
2023-05-23T17:27:46.252Z,42.52
2023-05-23T17:30:18.120Z,42.79
2023-05-23T17:32:49.737Z,42.16
2023-05-23T17:35:16.586Z,42.73
2023-05-23T17:37:44.782Z,43.14
2023-05-23T17:40:12.579Z,42.38
2023-05-23T17:42:40.718Z,42.54
2023-05-23T17:45:09.401Z,43.22
2023-05-23T17:47:36.344Z,43.24
2023-05-23T17:50:04.899Z,43.73
2023-05-23T17:52:32.474Z,43.55
2023-05-23T17:54:59.293Z,43.70
2023-05-23T17:57:26.750Z,43.09
2023-05-23T17:59:53.715Z,43.56
2023-05-23T18:02:20.563Z,43.65
2023-05-23T18:04:47.639Z,43.86
2023-05-23T18:07:18.550Z,43.71
2023-05-23T18:09:46.993Z,43.42
2023-05-23T18:12:14.688Z,43.59
2023-05-23T18:14:42.105Z,43.33
2023-05-23T18:17:09.728Z,43.80
2023-05-23T18:19:36.816Z,43.94
2023-05-23T18:22:03.811Z,43.89
2023-05-23T18:24:30.724Z,43.79
2023-05-23T18:26:58.272Z,43.98
2023-05-23T18:29:25.228Z,44.16
2023-05-23T18:31:52.047Z,44.12
2023-05-23T18:34:18.996Z,44.46
2023-05-23T18:36:46.142Z,44.28
2023-05-23T18:39:15.567Z,43.99
2023-05-23T18:41:42.754Z,44.48
2023-05-23T18:44:09.591Z,44.03
2023-05-23T18:46:36.686Z,44.46
2023-05-23T18:49:04.826Z,44.33
2023-05-23T18:51:32.432Z,44.46
2023-05-23T18:53:59.373Z,44.55
2023-05-23T18:56:26.896Z,44.47
2023-05-23T18:58:53.745Z,44.60
2023-05-23T19:01:21.347Z,44.64
2023-05-23T19:03:48.585Z,44.76
2023-05-23T19:06:15.864Z,45.04
2023-05-23T19:08:42.960Z,44.89
2023-05-23T19:11:10.793Z,44.94
2023-05-23T19:13:37.991Z,44.88
2023-05-23T19:16:05.093Z,44.76
2023-05-23T19:18:32.112Z,44.91
2023-05-23T19:20:59.158Z,45.04
2023-05-23T19:23:26.492Z,45.17
2023-05-23T19:25:53.389Z,45.54
2023-05-23T19:28:20.317Z,45.75
2023-05-23T19:30:47.297Z,45.72
2023-05-23T19:33:14.552Z,45.85
2023-05-23T19:35:41.571Z,45.97
2023-05-23T19:38:08.463Z,45.93
2023-05-23T19:40:35.365Z,45.92
2023-05-23T19:43:02.185Z,45.92
2023-05-23T19:45:29.020Z,46.13
2023-05-23T19:47:57.989Z,46.15
2023-05-23T19:50:24.866Z,46.19
2023-05-23T19:52:52.237Z,46.51
2023-05-23T19:55:19.501Z,46.54
2023-05-23T19:57:46.552Z,46.70
2023-05-23T20:00:14.732Z,46.72
2023-05-23T20:02:42.519Z,46.69
2023-05-23T20:05:09.628Z,46.85
2023-05-23T20:07:36.630Z,46.77
2023-05-23T20:10:04.130Z,46.86
2023-05-23T20:12:31.014Z,46.93
2023-05-23T20:14:57.843Z,46.72
2023-05-23T20:17:24.709Z,46.64
2023-05-23T20:19:51.641Z,46.79
2023-05-23T20:22:18.575Z,46.95
2023-05-23T20:24:46.624Z,46.94
2023-05-23T20:27:13.613Z,46.98
2023-05-23T20:29:40.679Z,46.74
2023-05-23T20:32:07.499Z,47.25
2023-05-23T20:34:34.424Z,47.20
2023-05-23T20:37:01.558Z,47.54
2023-05-23T20:39:28.412Z,47.11
2023-05-23T20:41:55.286Z,47.24
2023-05-23T20:44:22.145Z,47.26
2023-05-23T20:46:49.169Z,47.64
2023-05-23T20:49:16.589Z,47.58
2023-05-23T20:51:43.531Z,47.58
2023-05-23T20:54:10.434Z,47.60
2023-05-23T20:56:37.283Z,47.69
2023-05-23T20:59:04.125Z,47.58
2023-05-23T21:01:30.972Z,47.68
2023-05-23T21:03:57.985Z,47.87
2023-05-23T21:06:24.831Z,47.97
2023-05-23T21:08:51.654Z,47.96
2023-05-23T21:11:18.548Z,48.17
2023-05-23T21:13:45.620Z,48.40
2023-05-23T21:16:14.458Z,48.38
2023-05-23T21:18:41.600Z,48.34
2023-05-23T21:21:08.464Z,48.35
2023-05-23T21:23:35.349Z,48.51
2023-05-23T21:26:02.314Z,48.68
2023-05-23T21:28:29.156Z,48.61
2023-05-23T21:30:56.551Z,48.94
2023-05-23T21:33:23.435Z,48.83
2023-05-23T21:35:51.133Z,48.70
2023-05-23T21:38:17.992Z,48.88
2023-05-23T21:40:45.029Z,48.94
2023-05-23T21:43:12.132Z,49.10
2023-05-23T21:45:39.279Z,49.01
2023-05-23T21:48:06.190Z,49.08
2023-05-23T21:50:33.098Z,49.18
2023-05-23T21:52:59.918Z,49.21
2023-05-23T21:55:27.285Z,49.36
2023-05-23T21:57:54.170Z,49.31
2023-05-23T22:00:22.513Z,49.23
2023-05-23T22:02:49.453Z,49.69
2023-05-23T22:05:16.598Z,49.44
2023-05-23T22:07:43.458Z,49.86
2023-05-23T22:10:11.229Z,49.69
2023-05-23T22:12:38.668Z,49.84
2023-05-23T22:15:08.168Z,49.64
2023-05-23T22:17:35.263Z,49.94
2023-05-23T22:20:05.203Z,49.95
2023-05-23T22:22:32.184Z,49.84
2023-05-23T22:24:59.123Z,50.16
2023-05-23T22:27:26.043Z,49.73
2023-05-23T22:29:53.099Z,49.84
2023-05-23T22:32:22.849Z,49.93
2023-05-23T22:34:49.747Z,50.21
2023-05-23T22:37:18.322Z,50.17
2023-05-23T22:39:45.134Z,50.21
2023-05-23T22:42:11.986Z,50.46
2023-05-23T22:44:38.792Z,50.35
2023-05-23T22:47:10.119Z,50.51
2023-05-23T22:49:37.490Z,50.63
2023-05-23T22:52:04.709Z,50.50
2023-05-23T22:54:31.536Z,50.69
2023-05-23T22:56:58.372Z,50.89
2023-05-23T22:59:25.285Z,50.84
2023-05-23T23:01:52.203Z,50.61
2023-05-23T23:04:23.564Z,50.94
2023-05-23T23:06:53.522Z,50.95
2023-05-23T23:09:20.537Z,50.94
2023-05-23T23:11:47.367Z,50.74
2023-05-23T23:14:14.206Z,51.01
2023-05-23T23:16:42.533Z,50.94
2023-05-23T23:19:09.480Z,51.19
2023-05-23T23:21:37.559Z,51.15
2023-05-23T23:24:04.996Z,51.22
2023-05-23T23:26:31.840Z,51.16
2023-05-23T23:28:58.652Z,51.44
2023-05-23T23:31:25.483Z,51.34
2023-05-23T23:33:52.373Z,51.36
2023-05-23T23:36:19.172Z,51.30
2023-05-23T23:38:46.016Z,51.49
2023-05-23T23:41:12.900Z,51.56
2023-05-23T23:43:39.691Z,51.63
2023-05-23T23:46:06.550Z,51.53
2023-05-23T23:48:33.426Z,51.89
2023-05-23T23:51:00.302Z,51.84
2023-05-23T23:55:54.443Z,52.40
2023-05-23T23:58:21.254Z,51.97
